createdAt,value
2018-05-04T00:01:18.558Z,14.40
2018-05-04T00:03:44.833Z,14.40
2018-05-04T00:06:11.105Z,14.50
2018-05-04T00:08:38.151Z,14.60
2018-05-04T00:11:04.438Z,14.60
2018-05-04T00:13:30.684Z,14.70
2018-05-04T00:15:56.922Z,14.80
2018-05-04T00:18:23.876Z,14.80
2018-05-04T00:20:50.817Z,14.80
2018-05-04T00:23:17.777Z,14.80
2018-05-04T00:25:44.016Z,14.80
2018-05-04T00:28:10.244Z,14.70
2018-05-04T00:30:36.521Z,14.50
2018-05-04T00:33:02.828Z,14.50
2018-05-04T00:35:29.081Z,14.40
2018-05-04T00:37:55.276Z,14.20
2018-05-04T00:40:21.533Z,14.30
2018-05-04T00:42:47.786Z,14.30
2018-05-04T00:45:14.802Z,14.30
2018-05-04T00:47:41.024Z,14.20
2018-05-04T00:50:07.296Z,14.10
2018-05-04T00:52:33.597Z,14.00
2018-05-04T00:54:59.829Z,13.80
2018-05-04T00:57:26.077Z,13.80
2018-05-04T00:59:53.089Z,13.70
2018-05-04T01:02:19.348Z,13.60
2018-05-04T01:04:45.585Z,13.60
2018-05-04T01:07:11.829Z,13.60
2018-05-04T01:09:38.110Z,13.50
2018-05-04T01:12:04.328Z,13.30
2018-05-04T01:14:30.597Z,13.20
2018-05-04T01:16:57.609Z,13.10
2018-05-04T01:19:23.869Z,13.10
2018-05-04T01:21:50.885Z,13.00
2018-05-04T01:24:17.173Z,12.90
2018-05-04T01:26:43.417Z,13.00
2018-05-04T01:29:09.622Z,13.00
2018-05-04T01:31:35.906Z,13.10
2018-05-04T01:34:02.161Z,13.10
2018-05-04T01:36:29.132Z,13.10
2018-05-04T01:38:55.408Z,13.10
2018-05-04T01:41:21.669Z,13.10
2018-05-04T01:43:48.685Z,13.00
2018-05-04T01:46:14.944Z,13.00
2018-05-04T01:48:41.198Z,13.00
2018-05-04T01:51:07.419Z,12.90
2018-05-04T01:53:33.638Z,12.80
2018-05-04T01:55:59.898Z,12.80
2018-05-04T01:58:26.154Z,12.70
2018-05-04T02:00:52.449Z,12.70
2018-05-04T02:03:18.678Z,12.80
2018-05-04T02:05:44.934Z,12.80
2018-05-04T02:08:11.161Z,12.90
2018-05-04T02:10:37.405Z,13.00
2018-05-04T02:13:03.644Z,13.10
2018-05-04T02:15:29.922Z,13.10
2018-05-04T02:17:56.366Z,13.10
2018-05-04T02:20:22.615Z,13.00
2018-05-04T02:22:48.856Z,13.00
2018-05-04T02:25:15.116Z,13.10
2018-05-04T02:27:42.118Z,12.90
2018-05-04T02:30:08.373Z,12.90
2018-05-04T02:32:34.618Z,13.00
2018-05-04T02:35:00.854Z,13.00
2018-05-04T02:37:27.106Z,13.00
2018-05-04T02:39:53.345Z,13.00
2018-05-04T02:42:19.580Z,13.00
2018-05-04T02:44:45.874Z,12.90
2018-05-04T02:47:12.093Z,12.90
2018-05-04T02:49:38.313Z,13.00
2018-05-04T02:52:05.285Z,12.80
2018-05-04T02:54:31.568Z,12.80
2018-05-04T02:56:57.845Z,12.70
2018-05-04T02:59:24.105Z,12.70
2018-05-04T03:01:50.383Z,12.40
2018-05-04T03:04:16.633Z,12.30
2018-05-04T03:06:42.875Z,12.40
2018-05-04T03:09:09.159Z,12.20
2018-05-04T03:11:36.189Z,11.80
2018-05-04T03:14:03.214Z,11.60
2018-05-04T03:16:29.474Z,11.50
2018-05-04T03:18:56.488Z,11.50
2018-05-04T03:21:22.756Z,11.40
2018-05-04T03:23:48.993Z,11.60
2018-05-04T03:26:15.270Z,11.60
2018-05-04T03:28:41.504Z,11.70
2018-05-04T03:31:07.737Z,11.80
2018-05-04T03:33:33.973Z,12.00
2018-05-04T03:36:00.224Z,12.10
2018-05-04T03:38:26.469Z,12.20
2018-05-04T03:40:52.746Z,12.30
2018-05-04T03:43:18.953Z,12.30
2018-05-04T03:45:46.066Z,11.90
2018-05-04T03:48:12.486Z,11.50
2018-05-04T03:50:38.907Z,11.30
2018-05-04T03:53:05.319Z,11.20
2018-05-04T03:55:31.883Z,11.00
2018-05-04T03:58:10.502Z,10.90
2018-05-04T04:00:49.166Z,10.90
2018-05-04T04:03:27.666Z,10.90
2018-05-04T04:05:54.120Z,11.00
2018-05-04T04:08:20.522Z,11.20
2018-05-04T04:10:46.972Z,11.30
2018-05-04T04:13:14.158Z,11.40
2018-05-04T04:15:40.625Z,11.40
2018-05-04T04:18:07.118Z,11.60
2018-05-04T04:20:33.581Z,11.70
2018-05-04T04:23:00.014Z,11.80
2018-05-04T04:25:26.539Z,11.50
2018-05-04T04:27:52.878Z,11.50
2018-05-04T04:30:19.117Z,11.40
2018-05-04T04:32:46.118Z,11.00
2018-05-04T04:35:12.390Z,10.90
2018-05-04T04:37:38.633Z,11.00
2018-05-04T04:40:04.947Z,10.90
2018-05-04T04:42:31.912Z,10.50
2018-05-04T04:44:58.170Z,10.50
2018-05-04T04:47:24.421Z,10.40
2018-05-04T04:49:50.709Z,10.30
2018-05-04T04:52:16.941Z,10.30
2018-05-04T04:54:43.206Z,10.10
2018-05-04T04:57:09.445Z,10.30
2018-05-04T04:59:35.698Z,10.20
2018-05-04T05:02:02.722Z,10.40
2018-05-04T05:04:28.973Z,10.40
2018-05-04T05:06:55.933Z,10.10
2018-05-04T05:09:22.157Z,10.10
2018-05-04T05:11:49.166Z,10.30
2018-05-04T05:14:15.431Z,10.20
2018-05-04T05:16:41.750Z,10.30
2018-05-04T05:19:08.706Z,10.20
2018-05-04T05:21:35.713Z,10.20
2018-05-04T05:24:01.941Z,10.20
2018-05-04T05:26:28.169Z,10.30
2018-05-04T05:28:54.388Z,10.40
2018-05-04T05:31:20.611Z,10.40
2018-05-04T05:33:46.818Z,10.50
2018-05-04T05:36:13.079Z,10.40
2018-05-04T05:38:39.338Z,10.40
2018-05-04T05:41:06.321Z,10.50
2018-05-04T05:43:32.545Z,10.50
2018-05-04T05:45:58.777Z,10.50
2018-05-04T05:48:25.070Z,10.50
2018-05-04T05:50:52.053Z,10.50
2018-05-04T05:53:18.270Z,10.50
2018-05-04T05:55:44.522Z,10.50
2018-05-04T05:58:10.801Z,10.50
2018-05-04T06:00:37.165Z,10.50
2018-05-04T06:03:03.389Z,10.60
2018-05-04T06:05:29.620Z,10.60
2018-05-04T06:07:55.887Z,10.60
2018-05-04T06:10:22.149Z,10.60
2018-05-04T06:12:49.169Z,10.60
2018-05-04T06:15:15.385Z,10.50
2018-05-04T06:17:41.644Z,10.60
2018-05-04T06:20:08.633Z,10.70
2018-05-04T06:22:34.886Z,10.60
2018-05-04T06:25:01.147Z,10.70
2018-05-04T06:27:28.158Z,10.70
2018-05-04T06:29:54.365Z,10.70
2018-05-04T06:32:20.690Z,10.70
2018-05-04T06:34:46.928Z,10.70
2018-05-04T06:37:13.138Z,10.80
2018-05-04T06:39:39.546Z,10.80
2018-05-04T06:42:05.757Z,10.80
2018-05-04T06:44:32.013Z,10.90
2018-05-04T06:46:58.269Z,11.00
2018-05-04T06:49:24.521Z,11.00
2018-05-04T06:51:50.785Z,11.00
2018-05-04T06:54:17.873Z,11.10
2018-05-04T06:56:44.113Z,11.00
2018-05-04T06:59:10.381Z,11.10
2018-05-04T07:01:37.374Z,11.20
2018-05-04T07:04:03.625Z,11.20
2018-05-04T07:06:29.842Z,11.20
2018-05-04T07:08:56.100Z,11.20
2018-05-04T07:11:22.377Z,11.20
2018-05-04T07:13:48.614Z,11.20
2018-05-04T07:16:14.877Z,11.20
2018-05-04T07:18:41.169Z,11.30
2018-05-04T07:21:07.425Z,11.30
2018-05-04T07:23:33.674Z,11.30
2018-05-04T07:25:59.894Z,11.40
2018-05-04T07:28:26.118Z,11.40
2018-05-04T07:30:52.378Z,11.40
2018-05-04T07:33:19.333Z,11.60
2018-05-04T07:35:46.302Z,11.60
2018-05-04T07:38:12.525Z,11.60
2018-05-04T07:40:38.773Z,11.70
2018-05-04T07:43:05.085Z,11.80
2018-05-04T07:45:31.276Z,11.90
2018-05-04T07:47:57.533Z,12.00
2018-05-04T07:50:23.775Z,12.00
2018-05-04T07:52:50.038Z,12.10
2018-05-04T07:55:16.362Z,12.20
2018-05-04T07:57:42.537Z,12.20
2018-05-04T08:00:08.806Z,12.30
2018-05-04T08:02:35.066Z,12.50
2018-05-04T08:05:01.298Z,12.60
2018-05-04T08:07:27.557Z,12.80
2018-05-04T08:09:53.838Z,12.80
2018-05-04T08:12:20.071Z,12.80
2018-05-04T08:14:46.305Z,13.00
2018-05-04T08:17:12.566Z,13.10
2018-05-04T08:19:38.820Z,13.20
2018-05-04T08:22:05.071Z,13.20
2018-05-04T08:24:31.310Z,13.30
2018-05-04T08:26:57.529Z,13.30
2018-05-04T08:29:23.792Z,13.40
2018-05-04T08:31:50.809Z,13.30
2018-05-04T08:34:17.025Z,13.30
2018-05-04T08:36:43.270Z,13.50
2018-05-04T08:39:09.544Z,13.60
2018-05-04T08:41:35.818Z,13.60
2018-05-04T08:44:02.116Z,13.70
2018-05-04T08:46:28.359Z,13.70
2018-05-04T08:48:54.605Z,13.90
2018-05-04T08:51:20.858Z,13.90
2018-05-04T08:53:47.101Z,14.00
2018-05-04T08:56:13.401Z,14.00
2018-05-04T08:58:39.669Z,14.00
2018-05-04T09:01:05.937Z,14.10
2018-05-04T09:03:32.153Z,14.00
2018-05-04T09:05:58.411Z,14.10
2018-05-04T09:08:24.648Z,14.20
2018-05-04T09:10:50.901Z,14.40
2018-05-04T09:13:17.894Z,14.60
2018-05-04T09:15:44.144Z,14.70
2018-05-04T09:18:10.389Z,14.70
2018-05-04T09:20:36.699Z,14.70
2018-05-04T09:23:03.007Z,14.70
2018-05-04T09:25:29.221Z,14.80
2018-05-04T09:27:55.464Z,15.00
2018-05-04T09:30:21.691Z,15.10
2018-05-04T09:32:47.970Z,15.20
2018-05-04T09:35:14.934Z,15.30
2018-05-04T09:37:41.945Z,15.60
2018-05-04T09:40:08.221Z,15.50
2018-05-04T09:42:34.477Z,15.60
2018-05-04T09:45:00.743Z,15.60
2018-05-04T09:47:26.969Z,15.60
2018-05-04T09:49:53.974Z,15.80
2018-05-04T09:52:20.224Z,15.80
2018-05-04T09:54:47.217Z,15.90
2018-05-04T09:57:14.214Z,16.00
2018-05-04T09:59:40.464Z,16.00
2018-05-04T10:02:06.721Z,16.10
2018-05-04T10:04:32.978Z,16.20
2018-05-04T10:06:59.245Z,16.30
2018-05-04T10:09:25.464Z,16.50
2018-05-04T10:11:51.688Z,16.60
2018-05-04T10:14:17.907Z,16.50
2018-05-04T10:16:44.116Z,16.50
2018-05-04T10:19:10.368Z,16.60
2018-05-04T10:21:36.628Z,16.70
2018-05-04T10:24:03.610Z,17.00
2018-05-04T10:26:29.881Z,16.90
2018-05-04T10:28:56.104Z,17.00
2018-05-04T10:31:22.421Z,17.00
2018-05-04T10:33:49.425Z,17.00
2018-05-04T10:36:16.432Z,17.10
2018-05-04T10:38:42.755Z,17.10
2018-05-04T10:41:08.899Z,17.30
2018-05-04T10:43:35.177Z,17.40
2018-05-04T10:46:01.460Z,17.50
2018-05-04T10:48:27.736Z,17.60
2018-05-04T10:50:53.963Z,17.60
2018-05-04T10:53:20.211Z,17.70
2018-05-04T10:55:46.464Z,17.80
2018-05-04T10:58:12.677Z,17.90
2018-05-04T11:00:38.921Z,18.00
2018-05-04T11:03:05.176Z,18.00
2018-05-04T11:05:32.152Z,18.10
2018-05-04T11:07:58.396Z,18.10
2018-05-04T11:10:24.580Z,18.10
2018-05-04T11:12:51.616Z,18.40
2018-05-04T11:15:18.615Z,18.50
2018-05-04T11:17:44.839Z,18.40
2018-05-04T11:20:11.036Z,18.50
2018-05-04T11:22:37.279Z,18.50
2018-05-04T11:25:03.532Z,18.60
2018-05-04T11:27:29.781Z,18.70
2018-05-04T11:29:55.967Z,18.80
2018-05-04T11:32:22.220Z,18.90
2018-05-04T11:34:48.465Z,18.90
2018-05-04T11:37:14.721Z,18.90
2018-05-04T11:39:41.715Z,19.20
2018-05-04T11:42:07.951Z,19.20
2018-05-04T11:44:34.208Z,19.20
2018-05-04T11:47:01.231Z,19.30
2018-05-04T11:49:27.488Z,19.20
2018-05-04T11:51:54.496Z,19.30
2018-05-04T11:54:20.785Z,19.30
2018-05-04T11:56:47.097Z,19.60
2018-05-04T11:59:13.376Z,19.70
2018-05-04T12:01:39.686Z,19.60
2018-05-04T12:04:05.969Z,19.70
2018-05-04T12:06:32.224Z,19.80
2018-05-04T12:08:59.220Z,19.90
2018-05-04T12:11:25.448Z,19.90
2018-05-04T12:13:51.641Z,20.00
2018-05-04T12:16:17.916Z,20.10
2018-05-04T12:18:44.237Z,20.20
2018-05-04T12:21:10.486Z,20.30
2018-05-04T12:23:36.771Z,20.40
2018-05-04T12:26:03.081Z,20.50
2018-05-04T12:28:29.312Z,20.40
2018-05-04T12:30:55.573Z,20.40
2018-05-04T12:33:21.833Z,20.50
2018-05-04T12:35:48.057Z,20.50
2018-05-04T12:38:14.309Z,20.50
2018-05-04T12:40:41.304Z,20.70
2018-05-04T12:43:07.548Z,20.70
2018-05-04T12:45:33.797Z,20.70
2018-05-04T12:48:00.018Z,20.80
2018-05-04T12:50:26.265Z,20.90
2018-05-04T12:52:52.497Z,20.90
2018-05-04T12:55:19.496Z,21.10
2018-05-04T12:57:45.707Z,21.10
2018-05-04T13:00:11.998Z,21.10
2018-05-04T13:02:39.005Z,21.20
2018-05-04T13:05:05.217Z,21.10
2018-05-04T13:07:31.504Z,21.20
2018-05-04T13:09:58.486Z,21.20
2018-05-04T13:12:24.821Z,21.20
2018-05-04T13:14:51.050Z,21.30
2018-05-04T13:17:17.253Z,21.10
2018-05-04T13:19:43.542Z,21.10
2018-05-04T13:22:09.779Z,21.10
2018-05-04T13:24:36.054Z,21.20
2018-05-04T13:27:02.273Z,21.30
2018-05-04T13:29:28.545Z,21.40
2018-05-04T13:31:54.901Z,21.40
2018-05-04T13:34:21.921Z,21.50
2018-05-04T13:36:48.149Z,21.50
2018-05-04T13:39:14.401Z,21.40
2018-05-04T13:41:40.674Z,21.40
2018-05-04T13:44:06.895Z,21.30
2018-05-04T13:46:33.125Z,21.30
2018-05-04T13:48:59.340Z,21.30
2018-05-04T13:51:25.570Z,21.30
2018-05-04T13:53:51.810Z,21.30
2018-05-04T13:56:18.067Z,21.30
2018-05-04T13:58:44.302Z,21.40
2018-05-04T14:01:12.334Z,21.40
2018-05-04T14:03:38.536Z,21.40
2018-05-04T14:06:04.830Z,21.50
2018-05-04T14:08:31.072Z,21.50
2018-05-04T14:10:57.305Z,21.60
2018-05-04T14:13:23.585Z,21.50
2018-05-04T14:15:49.826Z,21.40
2018-05-04T14:18:16.173Z,21.40
2018-05-04T14:20:42.433Z,21.40
2018-05-04T14:23:08.649Z,21.40
2018-05-04T14:25:34.907Z,21.40
2018-05-04T14:28:01.182Z,21.50
2018-05-04T14:30:27.493Z,21.50
2018-05-04T14:32:53.797Z,21.50
2018-05-04T14:35:20.073Z,21.50
2018-05-04T14:37:46.356Z,21.50
2018-05-04T14:40:12.700Z,21.50
2018-05-04T14:42:38.982Z,21.70
2018-05-04T14:45:05.996Z,21.70
2018-05-04T14:47:32.265Z,21.60
2018-05-04T14:49:58.533Z,21.60
2018-05-04T14:52:24.792Z,21.60
2018-05-04T14:54:51.013Z,21.50
2018-05-04T14:57:17.281Z,21.50
2018-05-04T14:59:43.600Z,21.50
2018-05-04T15:02:09.843Z,21.60
2018-05-04T15:04:36.845Z,21.70
2018-05-04T15:07:03.129Z,21.60
2018-05-04T15:09:30.121Z,21.60
2018-05-04T15:11:56.473Z,21.50
2018-05-04T15:14:22.756Z,21.60
2018-05-04T15:16:49.045Z,21.70
2018-05-04T15:19:16.073Z,21.60
2018-05-04T15:21:42.345Z,21.50
2018-05-04T15:24:08.648Z,21.50
2018-05-04T15:26:34.911Z,21.50
2018-05-04T15:29:01.240Z,21.40
2018-05-04T15:31:27.602Z,21.40
2018-05-04T15:33:53.913Z,21.40
2018-05-04T15:36:20.219Z,21.40
2018-05-04T15:38:47.197Z,21.50
2018-05-04T15:41:13.512Z,21.50
2018-05-04T15:43:39.733Z,21.60
2018-05-04T15:46:06.123Z,21.60
2018-05-04T15:48:38.461Z,21.60
2018-05-04T15:51:10.951Z,21.70
2018-05-04T15:53:37.249Z,21.70
2018-05-04T15:56:03.516Z,21.70
2018-05-04T15:58:29.756Z,21.70
2018-05-04T16:00:56.092Z,21.80
2018-05-04T16:03:22.397Z,21.70
2018-05-04T16:05:48.624Z,21.70
2018-05-04T16:08:14.873Z,21.60
2018-05-04T16:10:41.172Z,21.60
2018-05-04T16:13:07.425Z,21.50
2018-05-04T16:15:33.651Z,21.50
2018-05-04T16:17:59.860Z,21.50
2018-05-04T16:20:26.161Z,21.40
2018-05-04T16:22:52.408Z,21.40
2018-05-04T16:25:18.716Z,21.30
2018-05-04T16:27:44.998Z,21.30
2018-05-04T16:30:11.267Z,21.40
2018-05-04T16:32:38.328Z,21.30
2018-05-04T16:35:04.601Z,21.30
2018-05-04T16:37:30.857Z,21.30
2018-05-04T16:39:57.873Z,21.20
2018-05-04T16:42:24.145Z,21.20
2018-05-04T16:44:51.170Z,21.20
2018-05-04T16:47:21.413Z,21.10
2018-05-04T16:49:47.978Z,21.10
2018-05-04T16:52:14.236Z,21.10
2018-05-04T16:54:40.480Z,21.10
2018-05-04T16:57:06.736Z,21.20
2018-05-04T16:59:33.761Z,21.20
2018-05-04T17:02:00.022Z,21.10
2018-05-04T17:04:26.276Z,21.10
2018-05-04T17:06:52.569Z,21.10
2018-05-04T17:09:19.691Z,21.00
2018-05-04T17:11:46.015Z,21.00
2018-05-04T17:14:12.268Z,21.00
2018-05-04T17:16:39.285Z,20.90
2018-05-04T17:19:05.599Z,20.90
2018-05-04T17:21:31.876Z,20.90
2018-05-04T17:23:58.889Z,20.80
2018-05-04T17:26:25.144Z,20.80
2018-05-04T17:28:52.148Z,20.70
2018-05-04T17:31:18.381Z,20.70
2018-05-04T17:33:44.672Z,20.70
2018-05-04T17:36:10.912Z,20.70
2018-05-04T17:38:37.160Z,20.70
2018-05-04T17:41:03.380Z,20.70
2018-05-04T17:43:29.604Z,20.70
2018-05-04T17:45:55.829Z,20.70
2018-05-04T17:48:22.105Z,20.60
2018-05-04T17:50:48.437Z,20.60
2018-05-04T17:53:14.716Z,20.50
2018-05-04T17:55:40.964Z,20.50
2018-05-04T17:58:07.224Z,20.40
2018-05-04T18:00:33.470Z,20.30
2018-05-04T18:03:00.718Z,20.30
2018-05-04T18:05:30.252Z,20.30
2018-05-04T18:07:56.548Z,20.30
2018-05-04T18:10:22.914Z,20.30
2018-05-04T18:12:49.087Z,20.20
2018-05-04T18:15:15.372Z,20.20
2018-05-04T18:17:41.623Z,20.10
2018-05-04T18:20:07.901Z,20.10
2018-05-04T18:22:34.917Z,20.00
2018-05-04T18:25:01.202Z,20.00
2018-05-04T18:27:27.465Z,20.00
2018-05-04T18:29:53.718Z,20.00
2018-05-04T18:32:19.944Z,19.90
2018-05-04T18:34:46.216Z,19.90
2018-05-04T18:37:12.464Z,19.80
2018-05-04T18:39:38.697Z,19.80
2018-05-04T18:42:04.922Z,19.80
2018-05-04T18:44:31.160Z,19.70
2018-05-04T18:46:57.421Z,19.70
2018-05-04T18:49:23.648Z,19.60
2018-05-04T18:51:50.728Z,19.60
2018-05-04T18:54:17.005Z,19.50
2018-05-04T18:56:43.422Z,19.50
2018-05-04T18:59:09.665Z,19.50
2018-05-04T19:01:35.929Z,19.50
2018-05-04T19:04:02.989Z,19.40
2018-05-04T19:06:29.985Z,19.30
2018-05-04T19:08:56.237Z,19.30
2018-05-04T19:11:22.533Z,19.30
2018-05-04T19:13:48.757Z,19.20
2018-05-04T19:16:14.974Z,19.20
2018-05-04T19:18:41.263Z,19.10
2018-05-04T19:21:08.305Z,19.10
2018-05-04T19:23:34.597Z,19.00
2018-05-04T19:26:00.862Z,19.10
2018-05-04T19:28:27.123Z,19.00
2018-05-04T19:30:53.361Z,18.90
2018-05-04T19:33:19.706Z,18.90
2018-05-04T19:35:45.978Z,18.90
2018-05-04T19:38:12.231Z,18.90
2018-05-04T19:40:38.459Z,18.90
2018-05-04T19:43:04.775Z,18.90
2018-05-04T19:45:31.790Z,18.90
2018-05-04T19:47:58.035Z,18.90
2018-05-04T19:50:24.281Z,18.90
2018-05-04T19:52:51.271Z,18.90
2018-05-04T19:55:17.481Z,18.90
2018-05-04T19:57:43.793Z,18.90
2018-05-04T20:00:10.749Z,18.80
2018-05-04T20:02:37.035Z,18.70
2018-05-04T20:05:03.345Z,18.70
2018-05-04T20:07:29.641Z,18.70
2018-05-04T20:09:55.900Z,18.70
2018-05-04T20:12:22.212Z,18.70
2018-05-04T20:14:48.461Z,18.60
2018-05-04T20:17:14.718Z,18.50
2018-05-04T20:19:40.996Z,18.50
2018-05-04T20:22:07.348Z,18.50
2018-05-04T20:24:34.357Z,18.40
2018-05-04T20:27:00.734Z,18.40
2018-05-04T20:29:27.098Z,18.30
2018-05-04T20:31:54.213Z,18.20
2018-05-04T20:34:21.314Z,18.20
2018-05-04T20:36:47.653Z,18.10
2018-05-04T20:39:13.975Z,18.10
2018-05-04T20:41:40.184Z,18.00
2018-05-04T20:44:07.178Z,18.00
2018-05-04T20:46:33.453Z,17.90
2018-05-04T20:48:59.697Z,17.90
2018-05-04T20:51:25.983Z,17.80
2018-05-04T20:53:52.273Z,17.80
2018-05-04T20:56:18.541Z,17.70
2018-05-04T20:58:44.789Z,17.60
2018-05-04T21:01:11.066Z,17.60
2018-05-04T21:03:37.299Z,17.60
2018-05-04T21:06:03.542Z,17.50
2018-05-04T21:08:29.754Z,17.40
2018-05-04T21:10:56.005Z,17.50
2018-05-04T21:13:22.253Z,17.40
2018-05-04T21:15:48.545Z,17.40
2018-05-04T21:18:14.808Z,17.40
2018-05-04T21:20:41.092Z,17.40
2018-05-04T21:23:07.347Z,17.50
2018-05-04T21:25:33.605Z,17.40
2018-05-04T21:27:59.862Z,17.50
2018-05-04T21:30:26.096Z,17.40
2018-05-04T21:32:52.384Z,17.50
2018-05-04T21:35:18.648Z,17.40
2018-05-04T21:37:44.869Z,17.40
2018-05-04T21:40:11.937Z,17.40
2018-05-04T21:42:38.192Z,17.40
2018-05-04T21:45:04.438Z,17.40
2018-05-04T21:47:30.654Z,17.40
2018-05-04T21:49:56.882Z,17.40
2018-05-04T21:52:23.131Z,17.40
2018-05-04T21:54:49.350Z,17.30
2018-05-04T21:57:15.718Z,17.30
2018-05-04T21:59:42.669Z,17.20
2018-05-04T22:02:08.916Z,17.20
2018-05-04T22:04:35.179Z,17.20
2018-05-04T22:07:01.409Z,17.10
2018-05-04T22:09:27.640Z,17.10
2018-05-04T22:11:53.845Z,17.10
2018-05-04T22:14:20.121Z,17.10
2018-05-04T22:16:46.380Z,17.00
2018-05-04T22:19:12.608Z,17.00
2018-05-04T22:21:38.870Z,17.00
2018-05-04T22:24:05.164Z,17.00
2018-05-04T22:26:31.428Z,17.00
2018-05-04T22:28:57.653Z,17.00
2018-05-04T22:31:23.905Z,17.00
2018-05-04T22:33:50.148Z,17.10
2018-05-04T22:36:16.444Z,17.10
2018-05-04T22:38:42.721Z,17.10
2018-05-04T22:41:09.704Z,17.00
2018-05-04T22:43:35.953Z,17.00
2018-05-04T22:46:02.226Z,16.90
2018-05-04T22:48:29.196Z,16.60
2018-05-04T22:50:55.432Z,16.60
2018-05-04T22:53:21.741Z,16.60
2018-05-04T22:55:48.119Z,16.60
2018-05-04T22:58:14.390Z,16.60
2018-05-04T23:00:40.696Z,16.60
2018-05-04T23:03:06.961Z,16.60
2018-05-04T23:05:33.976Z,16.40
2018-05-04T23:08:00.975Z,16.20
2018-05-04T23:10:27.305Z,16.20
2018-05-04T23:12:53.634Z,16.10
2018-05-04T23:15:19.892Z,16.10
2018-05-04T23:17:46.898Z,16.00
2018-05-04T23:20:13.197Z,16.00
2018-05-04T23:22:40.204Z,16.10
2018-05-04T23:25:06.517Z,16.00
2018-05-04T23:27:32.800Z,16.10
2018-05-04T23:29:59.848Z,16.20
2018-05-04T23:32:26.112Z,16.10
2018-05-04T23:34:52.393Z,16.20
2018-05-04T23:37:18.662Z,16.10
2018-05-04T23:39:44.969Z,16.20
2018-05-04T23:42:11.942Z,16.30
2018-05-04T23:44:38.209Z,16.30
2018-05-04T23:47:04.530Z,16.30
2018-05-04T23:49:30.737Z,16.30
2018-05-04T23:51:56.985Z,16.20
2018-05-04T23:54:23.207Z,16.30
2018-05-04T23:56:49.461Z,16.20
2018-05-04T23:59:15.719Z,16.20
